createdAt,value
2023-03-22T17:08:07.973Z,0.8000
2023-03-22T17:09:09.378Z,1.0000
2023-03-22T17:10:11.080Z,1.0769
2023-03-22T17:11:12.685Z,1.2000
2023-03-22T17:12:14.326Z,1.2154
2023-03-22T17:13:15.985Z,1.4000
2023-03-22T17:14:17.638Z,1.4000
2023-03-22T17:15:19.271Z,1.5692
2023-03-22T17:16:20.938Z,1.6308
2023-03-22T17:17:22.605Z,1.8615
2023-03-22T17:18:24.205Z,2.0000
2023-03-22T17:19:25.885Z,2.0923
2023-03-22T17:20:27.498Z,2.2000
2023-03-22T17:21:29.135Z,2.1846
2023-03-22T17:22:30.794Z,2.2000
2023-03-22T17:23:32.484Z,2.0462
2023-03-22T17:24:34.097Z,2.0000
2023-03-22T17:25:35.759Z,2.0000
2023-03-22T17:26:37.405Z,2.0000
2023-03-22T17:27:39.036Z,2.0000
2023-03-22T17:28:40.694Z,2.0000
2023-03-22T17:29:42.332Z,2.0000
2023-03-22T17:30:43.981Z,1.8000
2023-03-22T17:31:53.472Z,1.8000
2023-03-22T17:32:59.603Z,1.8462
2023-03-22T17:33:48.970Z,1.8154
2023-03-22T17:34:50.604Z,1.8000
2023-03-22T17:35:52.229Z,1.8000
2023-03-22T17:36:53.904Z,1.8000
2023-03-22T17:37:56.224Z,1.7846
2023-03-22T17:39:17.939Z,1.8000
2023-03-22T17:40:20.963Z,1.8000
2023-03-22T17:41:02.499Z,1.8000
2023-03-22T17:42:02.170Z,1.6923
2023-03-22T17:43:03.830Z,1.6000
2023-03-22T17:44:05.479Z,1.6462
2023-03-22T17:45:08.121Z,1.6615
2023-03-22T17:46:38.285Z,1.7231
2023-03-22T17:48:12.141Z,1.6615
2023-03-22T17:49:13.759Z,1.2615
2023-03-22T17:50:15.400Z,0.9538
2023-03-22T17:51:17.081Z,0.8000
2023-03-22T17:52:18.727Z,0.8000
2023-03-22T17:53:43.373Z,0.8000
2023-03-22T17:54:52.565Z,0.8000
2023-03-22T17:55:30.049Z,0.8000
2023-03-22T17:57:01.030Z,0.8000
2023-03-22T17:58:05.022Z,1.0000
2023-03-22T17:58:41.332Z,1.0769
2023-03-22T17:59:30.290Z,1.2000
2023-03-22T18:00:31.918Z,1.2000
2023-03-22T18:01:33.815Z,1.3538
2023-03-22T18:02:35.241Z,1.4154
2023-03-22T18:03:36.874Z,1.6000
2023-03-22T18:04:38.518Z,1.6000
2023-03-22T18:05:40.152Z,1.6000
2023-03-22T18:06:41.775Z,1.6308
2023-03-22T18:07:43.435Z,1.6000
2023-03-22T18:08:45.119Z,1.7077
2023-03-22T18:09:46.791Z,1.8000
2023-03-22T18:10:48.395Z,1.8000
2023-03-22T18:11:50.060Z,1.8000
2023-03-22T18:12:51.773Z,1.8000
2023-03-22T18:13:59.289Z,1.8000
2023-03-22T18:14:55.005Z,1.8000
2023-03-22T18:15:56.663Z,1.8000
2023-03-22T18:16:58.318Z,1.8000
2023-03-22T18:17:59.978Z,1.8000
2023-03-22T18:19:01.612Z,1.8000
2023-03-22T18:20:14.808Z,1.8000
2023-03-22T18:21:04.900Z,1.8000
2023-03-22T18:22:06.586Z,1.8000
2023-03-22T18:23:08.241Z,1.8000
2023-03-22T18:24:09.877Z,1.8000
2023-03-22T18:25:12.085Z,1.8000
2023-03-22T18:26:27.147Z,1.8000
2023-03-22T18:27:15.874Z,1.8000
2023-03-22T18:28:16.513Z,1.8000
2023-03-22T18:29:18.142Z,1.8000
2023-03-22T18:30:19.816Z,1.8000
2023-03-22T18:31:21.508Z,1.8000
2023-03-22T18:32:30.409Z,1.8462
2023-03-22T18:33:24.745Z,1.8308
2023-03-22T18:34:26.402Z,1.8000
2023-03-22T18:35:28.108Z,1.8769
2023-03-22T18:36:29.808Z,1.8769
2023-03-22T18:37:31.416Z,1.9231
2023-03-22T18:39:13.339Z,1.8923
2023-03-22T18:40:08.052Z,2.0000
2023-03-22T18:42:48.501Z,1.9692
2023-03-22T18:43:42.205Z,1.9846
2023-03-22T18:44:42.873Z,2.0000
2023-03-22T18:45:58.531Z,1.9846
2023-03-22T18:46:46.260Z,2.0000
2023-03-22T18:47:47.865Z,2.0000
2023-03-22T18:48:49.517Z,2.0000
2023-03-22T18:49:51.188Z,2.0000
2023-03-22T18:50:57.101Z,2.0000
2023-03-22T18:52:32.779Z,2.0000
2023-03-22T18:53:57.760Z,2.0000
2023-03-22T18:55:15.067Z,1.9846
2023-03-22T18:57:02.735Z,2.0154
2023-03-22T18:58:04.376Z,2.0308
2023-03-22T18:59:05.992Z,2.0000
2023-03-22T19:00:07.680Z,2.0000
2023-03-22T19:01:09.316Z,2.0000
2023-03-22T19:02:15.969Z,2.2923
2023-03-22T19:03:12.580Z,2.0462
2023-03-22T19:04:14.259Z,1.8462
2023-03-22T19:05:15.901Z,1.8615
2023-03-22T19:06:17.556Z,2.0000
2023-03-22T19:07:35.622Z,2.0000
2023-03-22T19:08:27.164Z,1.9077
2023-03-22T19:09:22.482Z,2.0000
2023-03-22T19:10:25.166Z,2.0000
2023-03-22T19:11:25.835Z,2.0615
2023-03-22T19:12:27.429Z,2.1231
2023-03-22T19:13:29.100Z,2.1231
2023-03-22T19:15:17.488Z,2.1538
2023-03-22T19:16:34.058Z,2.1385
2023-03-22T19:17:35.713Z,2.0615
2023-03-22T19:18:37.353Z,2.1846
2023-03-22T19:19:39.353Z,2.2000
2023-03-22T19:20:40.901Z,2.2308
2023-03-22T19:21:42.320Z,2.2000
2023-03-22T19:22:43.977Z,2.2308
2023-03-22T19:23:45.620Z,2.0769
2023-03-22T19:24:47.293Z,2.1538
2023-03-22T19:25:48.921Z,2.0923
2023-03-22T19:27:01.632Z,2.1846
2023-03-22T19:27:52.204Z,2.1231
2023-03-22T19:28:53.846Z,2.1385
2023-03-22T19:29:55.500Z,2.1231
2023-03-22T19:30:57.150Z,2.1385
2023-03-22T19:31:58.843Z,2.2308
2023-03-22T19:33:24.158Z,1.9077
2023-03-22T19:34:02.103Z,2.2000
2023-03-22T19:35:03.785Z,2.0000
2023-03-22T19:36:05.444Z,1.9538
2023-03-22T19:37:07.098Z,1.8769
2023-03-22T19:38:08.706Z,1.8154
2023-03-22T19:39:12.290Z,1.8000
2023-03-22T19:41:06.142Z,1.9077
2023-03-22T19:41:33.645Z,1.9692
2023-03-22T19:43:16.958Z,2.0000
2023-03-22T19:44:18.633Z,2.0000
2023-03-22T19:45:20.273Z,2.0000
2023-03-22T19:46:21.932Z,2.0000
2023-03-22T19:47:23.614Z,1.9385
2023-03-22T19:48:25.299Z,1.8923
2023-03-22T19:49:26.901Z,2.0000
2023-03-22T19:50:28.497Z,1.9538
2023-03-22T19:51:30.150Z,2.1231
2023-03-22T19:52:31.814Z,2.1692
2023-03-22T19:54:44.935Z,2.2000
2023-03-22T19:55:36.759Z,2.2462
2023-03-22T19:56:38.398Z,2.3538
2023-03-22T19:57:40.268Z,2.3231
2023-03-22T19:58:41.742Z,2.3077
2023-03-22T19:59:55.208Z,2.3231
2023-03-22T20:00:45.921Z,2.2462
2023-03-22T20:01:47.307Z,2.3846
2023-03-22T20:02:48.380Z,2.4000
2023-03-22T20:03:49.987Z,2.4000
2023-03-22T20:04:51.646Z,2.4000
2023-03-22T20:05:53.465Z,2.3846
2023-03-22T20:06:55.460Z,2.2154
2023-03-22T20:07:56.607Z,2.3077
2023-03-22T20:08:58.245Z,2.3846
2023-03-22T20:09:59.906Z,2.2000
2023-03-22T20:11:02.292Z,2.2462
2023-03-22T20:12:03.180Z,2.2462
2023-03-22T20:13:04.936Z,2.2462
2023-03-22T20:14:06.459Z,2.3538
2023-03-22T20:15:08.151Z,2.3692
2023-03-22T20:16:09.808Z,2.4000
2023-03-22T20:17:15.243Z,2.3846
2023-03-22T20:18:13.084Z,2.3846
2023-03-22T20:19:14.746Z,2.4000
2023-03-22T20:20:16.365Z,2.3692
2023-03-22T20:21:18.012Z,2.2462
2023-03-22T20:22:19.696Z,2.2000
2023-03-22T20:23:21.342Z,2.2000
2023-03-22T20:24:22.977Z,2.2462
2023-03-22T20:25:24.659Z,2.2308
2023-03-22T20:26:26.289Z,2.4000
2023-03-22T20:27:27.916Z,2.4000
2023-03-22T20:28:29.596Z,2.4000
2023-03-22T20:29:31.211Z,2.4000
2023-03-22T20:30:32.871Z,2.4000
2023-03-22T20:31:34.514Z,2.4000
2023-03-22T20:32:36.191Z,2.4000
2023-03-22T20:33:37.874Z,2.4000
2023-03-22T20:34:39.502Z,2.4000
2023-03-22T20:35:41.319Z,2.4462
2023-03-22T20:36:42.810Z,2.6000
2023-03-22T20:37:44.459Z,2.6000
2023-03-22T20:38:46.138Z,2.5231
2023-03-22T20:39:47.733Z,2.4308
2023-03-22T20:40:49.387Z,2.5385
2023-03-22T20:41:51.072Z,2.5692
2023-03-22T20:42:52.696Z,2.5231
2023-03-22T20:43:54.337Z,2.4308
2023-03-22T20:44:55.992Z,2.6769
2023-03-22T20:45:57.640Z,2.3846
2023-03-22T20:46:59.305Z,2.3231
2023-03-22T20:48:00.955Z,2.4000
2023-03-22T20:49:02.613Z,2.4000
2023-03-22T20:50:04.215Z,2.4000
2023-03-22T20:51:05.866Z,2.5538
2023-03-22T20:52:07.507Z,2.6000
2023-03-22T20:53:09.184Z,2.4000
2023-03-22T20:54:10.842Z,2.4000
2023-03-22T20:55:12.458Z,2.4462
2023-03-22T20:56:14.141Z,2.5692
2023-03-22T20:57:15.763Z,2.7077
2023-03-22T20:58:17.446Z,2.6769
2023-03-22T20:59:19.102Z,2.4923
2023-03-22T21:00:20.743Z,2.2462
2023-03-22T21:01:22.409Z,2.1846
2023-03-22T21:02:24.101Z,2.3231
2023-03-22T21:03:25.723Z,2.3385
2023-03-22T21:04:27.413Z,2.2769
2023-03-22T21:05:29.029Z,2.2462
2023-03-22T21:06:30.645Z,2.3538
2023-03-22T21:07:32.315Z,2.2615
2023-03-22T21:08:34.006Z,2.2462
2023-03-22T21:09:35.609Z,2.3385
2023-03-22T21:10:37.348Z,2.4769
2023-03-22T21:11:38.985Z,2.5846
2023-03-22T21:12:40.623Z,2.3231
2023-03-22T21:13:42.295Z,2.2154
2023-03-22T21:14:43.981Z,2.3692
2023-03-22T21:15:45.589Z,2.3846
2023-03-22T21:16:47.823Z,2.4000
2023-03-22T21:17:49.432Z,2.4000
2023-03-22T21:18:50.523Z,2.4000
2023-03-22T21:19:52.195Z,2.4000
2023-03-22T21:20:53.939Z,2.4000
2023-03-22T21:21:59.965Z,2.4000
2023-03-22T21:22:57.138Z,2.4000
2023-03-22T21:23:58.816Z,2.4000
2023-03-22T21:25:00.477Z,2.4154
2023-03-22T21:26:02.100Z,2.4615
2023-03-22T21:27:03.737Z,2.4308
2023-03-22T21:28:05.396Z,2.4000
2023-03-22T21:29:07.070Z,2.4000
2023-03-22T21:30:08.725Z,2.4769
2023-03-22T21:31:10.496Z,2.5846
2023-03-22T21:32:11.987Z,2.4615
2023-03-22T21:33:13.635Z,2.6000
2023-03-22T21:34:15.304Z,2.5231
2023-03-22T21:35:16.943Z,2.5538
2023-03-22T21:36:18.616Z,2.6000
2023-03-22T21:37:20.216Z,2.6000
2023-03-22T21:38:21.874Z,2.5692
2023-03-22T21:39:23.520Z,2.6000
2023-03-22T21:40:25.186Z,2.5385
2023-03-22T21:41:26.826Z,2.5846
2023-03-22T21:42:28.458Z,2.6000
2023-03-22T21:43:30.108Z,2.5385
2023-03-22T21:44:31.801Z,2.5846
2023-03-22T21:45:33.422Z,2.5385
2023-03-22T21:46:35.056Z,2.5692
2023-03-22T21:47:36.716Z,2.4769
2023-03-22T21:48:38.367Z,2.6000
2023-03-22T21:49:40.010Z,2.6000
2023-03-22T21:50:41.685Z,2.5692
2023-03-22T21:51:43.336Z,2.5077
2023-03-22T21:52:45.025Z,2.6000
2023-03-22T21:53:46.610Z,2.5385
2023-03-22T21:54:48.271Z,2.5231
2023-03-22T21:55:49.958Z,2.4154
2023-03-22T21:56:51.596Z,2.4154
2023-03-22T21:57:53.341Z,2.4154
2023-03-22T21:58:54.891Z,2.5077
2023-03-22T21:59:56.548Z,2.5385
2023-03-22T22:00:58.231Z,2.6000
2023-03-22T22:01:59.843Z,2.6000
2023-03-22T22:03:01.520Z,2.6000
2023-03-22T22:04:03.142Z,2.5231
2023-03-22T22:05:04.781Z,2.6000
2023-03-22T22:06:06.612Z,2.5538
2023-03-22T22:07:08.066Z,2.6000
2023-03-22T22:08:09.720Z,2.6000
2023-03-22T22:09:11.362Z,2.6000
2023-03-22T22:10:13.032Z,2.4462
2023-03-22T22:11:14.685Z,2.4000
2023-03-22T22:12:16.549Z,2.5231
2023-03-22T22:13:18.001Z,2.6000
2023-03-22T22:14:19.654Z,2.6000
2023-03-22T22:15:21.295Z,2.5077
2023-03-22T22:16:22.987Z,2.5231
2023-03-22T22:17:24.623Z,2.5846
2023-03-22T22:18:26.236Z,2.4923
2023-03-22T22:19:27.918Z,2.4308
2023-03-22T22:20:29.559Z,2.4615
2023-03-22T22:21:31.204Z,2.4000
2023-03-22T22:22:32.862Z,2.4923
2023-03-22T22:23:34.491Z,2.3692
2023-03-22T22:24:36.163Z,2.2615
2023-03-22T22:25:37.800Z,2.2769
2023-03-22T22:26:39.462Z,2.3231
2023-03-22T22:27:41.210Z,2.2923
2023-03-22T22:28:42.732Z,2.1538
2023-03-22T22:29:44.391Z,2.1692
2023-03-22T22:30:46.024Z,2.2462
2023-03-22T22:31:47.681Z,2.4000
2023-03-22T22:32:49.336Z,2.4308
2023-03-22T22:33:51.011Z,2.6000
2023-03-22T22:34:52.641Z,2.5846
2023-03-22T22:35:54.338Z,2.6000
2023-03-22T22:36:55.943Z,2.6308
2023-03-22T22:37:57.581Z,2.6000
2023-03-22T22:38:59.205Z,2.6000
2023-03-22T22:40:00.860Z,2.6462
2023-03-22T22:41:02.538Z,2.8000
2023-03-22T22:42:04.168Z,2.7538
2023-03-22T22:43:05.824Z,2.8154
2023-03-22T22:44:07.452Z,2.6462
2023-03-22T22:45:09.128Z,2.6769
2023-03-22T22:46:10.826Z,2.7538
2023-03-22T22:47:12.536Z,2.6769
2023-03-22T22:48:14.092Z,2.6308
2023-03-22T22:49:15.743Z,2.6462
2023-03-22T22:50:17.404Z,2.6923
2023-03-22T22:51:19.071Z,2.7692
2023-03-22T22:52:20.725Z,2.8000
2023-03-22T22:53:22.348Z,2.7846
2023-03-22T22:54:23.988Z,2.8000
2023-03-22T22:55:25.651Z,2.8000
2023-03-22T22:56:27.324Z,2.7077
2023-03-22T22:57:28.966Z,2.6923
2023-03-22T22:58:30.607Z,2.7846
2023-03-22T22:59:32.262Z,2.7385
2023-03-22T23:00:33.902Z,2.6769
2023-03-22T23:01:35.534Z,2.6308
2023-03-22T23:02:37.232Z,2.6462
2023-03-22T23:03:38.834Z,2.6000
2023-03-22T23:04:40.502Z,2.6000
2023-03-22T23:05:42.427Z,2.6615
2023-03-22T23:06:43.788Z,2.6769
2023-03-22T23:07:45.471Z,2.7692
2023-03-22T23:08:47.101Z,2.7077
2023-03-22T23:09:48.765Z,2.6615
2023-03-22T23:10:50.406Z,2.6923
2023-03-22T23:11:52.089Z,2.7538
2023-03-22T23:12:53.773Z,2.7692
2023-03-22T23:13:55.383Z,2.8000
2023-03-22T23:14:57.042Z,2.7846
2023-03-22T23:15:58.701Z,2.8000
2023-03-22T23:17:00.347Z,2.8000
2023-03-22T23:18:09.771Z,2.8000
2023-03-22T23:19:03.626Z,2.7538
2023-03-22T23:20:05.309Z,2.7077
2023-03-22T23:21:06.926Z,2.7846
2023-03-22T23:22:08.594Z,2.8000
2023-03-22T23:23:10.262Z,2.8769
2023-03-22T23:24:11.905Z,2.8000
2023-03-22T23:25:13.554Z,2.8000
2023-03-22T23:26:15.207Z,2.8462
2023-03-22T23:27:16.870Z,2.8769
2023-03-22T23:28:18.566Z,2.8615
2023-03-22T23:29:20.236Z,2.7692
2023-03-22T23:30:21.832Z,2.8000
2023-03-22T23:31:23.486Z,2.8000
2023-03-22T23:32:25.167Z,3.0000
2023-03-22T23:33:26.823Z,2.8923
2023-03-22T23:34:28.491Z,2.8000
2023-03-22T23:35:30.143Z,2.8462
2023-03-22T23:36:31.778Z,2.8000
2023-03-22T23:37:33.436Z,2.8000
2023-03-22T23:38:35.111Z,2.8000
2023-03-22T23:39:36.730Z,2.7846
2023-03-22T23:40:38.425Z,2.8923
2023-03-22T23:41:40.053Z,2.8308
2023-03-22T23:42:41.698Z,2.7846
2023-03-22T23:43:43.373Z,2.8462
2023-03-22T23:44:45.015Z,2.7385
2023-03-22T23:45:46.665Z,2.8154
2023-03-22T23:46:48.341Z,2.8308
2023-03-22T23:47:49.983Z,2.8000
2023-03-22T23:48:51.627Z,2.6154
2023-03-22T23:49:53.283Z,2.6000
2023-03-22T23:50:54.933Z,2.4615
2023-03-22T23:51:56.576Z,2.4000
2023-03-22T23:52:58.248Z,2.4000
2023-03-22T23:53:59.912Z,2.4000
2023-03-22T23:55:01.548Z,2.4000
2023-03-22T23:56:03.212Z,2.4000
2023-03-22T23:57:04.861Z,2.4000
2023-03-22T23:58:06.511Z,2.4000
2023-03-22T23:59:08.208Z,2.4000
